Trebic, Czech Republic
Current Conditions -  °F | °C
As of 4:00 AM on Saturday 29 Nov 2014 (Local Time) from LKNA Reporting Station
Freezing Drizzle Freezing Drizzle  
Wind Chill: 24°   Ceiling: 100
Heat Index: 32°   Visibility: 0.31mi
Dew Point: 32°   Wind: 10mph
Humidity: 100%   Direction: 100°E
Pressure: 30.06"   Gusts: NA
Location:  49.22°N, 15.87°E
Report Text: LKNA 290200Z 10009KT 0500 -FZDZ FZFG VV001 M00/M00 Q1018
Loading
Personal Weather Stations






























Interactive Weather Map New forecast layout! Learn more

10-Day Weather Forecast

Advertisements
Track Severe Weather on mobile